Time;durP1;ratioP1;P1;durP2;ratioP2;P2;SDS_P1;SDS_P2;PMS_P1;PMS_P2;Temp;Humidity;BMP_temperature;BMP_pressure;BME280_temperature;BME280_humidity;BME280_pressure;Samples;Min_cycle;Max_cycle;Signal;HPM_P1;HPM_P2
2021/10/31 00:01:28;;;;;;;31.00;17.00;;;;;;;2.80;82.26;97582.06;6267834;28;20188;-67
2021/10/31 00:04:30;;;;;;;24.53;15.60;;;;;;;2.78;82.12;97589.16;6266959;28;20247;-67
2021/10/31 00:07:32;;;;;;;25.60;16.60;;;;;;;2.79;82.40;97588.22;6268091;28;20204;-67
2021/10/31 00:10:35;;;;;;;27.63;15.77;;;;;;;2.78;82.36;97593.53;6267684;28;20231;-67
2021/10/31 00:13:37;;;;;;;19.27;13.80;;;;;;;2.72;82.09;97594.66;6266877;28;20221;-67
2021/10/31 00:16:39;;;;;;;21.17;14.77;;;;;;;2.70;82.54;97593.03;6266321;28;20203;-68
2021/10/31 00:19:41;;;;;;;22.93;15.30;;;;;;;2.67;82.30;97598.41;6268137;28;20200;-68
2021/10/31 00:22:45;;;;;;;16.67;13.77;;;;;;;2.62;82.50;97606.44;6267936;28;20573;-68
2021/10/31 00:25:47;;;;;;;19.00;13.77;;;;;;;2.63;82.71;97615.97;6268056;28;20193;-68
2021/10/31 00:28:49;;;;;;;18.63;14.30;;;;;;;2.65;82.50;97605.47;6268244;28;20373;-67
2021/10/31 00:31:51;;;;;;;21.27;13.93;;;;;;;2.60;82.75;97605.69;6268359;28;20769;-68
2021/10/31 00:34:57;;;;;;;21.23;14.60;;;;;;;2.57;82.78;97609.31;6272816;28;20192;-68
2021/10/31 00:37:59;;;;;;;18.17;13.67;;;;;;;2.57;82.71;97611.91;6272499;28;20228;-68
2021/10/31 00:41:01;;;;;;;19.77;14.63;;;;;;;2.56;82.70;97609.38;6271141;28;20199;-67
2021/10/31 00:44:05;;;;;;;19.57;14.27;;;;;;;2.51;82.63;97608.75;6271489;28;20660;-67
2021/10/31 00:47:07;;;;;;;20.80;15.17;;;;;;;2.51;83.14;97606.97;6272329;28;20189;-67
2021/10/31 00:50:10;;;;;;;20.17;14.33;;;;;;;2.54;83.34;97608.59;6272376;28;20191;-67
2021/10/31 00:53:12;;;;;;;23.23;16.37;;;;;;;2.55;83.26;97603.31;6271856;28;20212;-67
2021/10/31 00:56:14;;;;;;;23.73;17.73;;;;;;;2.53;83.78;97607.75;6272605;28;20200;-67
2021/10/31 00:59:16;;;;;;;23.00;17.27;;;;;;;2.51;83.70;97591.34;6272209;28;20196;-67
2021/10/31 01:02:19;;;;;;;23.30;16.43;;;;;;;2.51;83.60;97588.75;6271704;28;20477;-67
2021/10/31 01:05:26;;;;;;;22.13;16.63;;;;;;;2.49;83.57;97585.41;6272124;28;20205;-67
2021/10/31 01:08:49;;;;;;;24.70;16.87;;;;;;;2.48;83.60;97595.91;6271658;28;20187;-68
2021/10/31 01:12:35;;;;;;;21.47;16.33;;;;;;;2.47;83.63;97599.41;6271907;28;20603;-68
2021/10/31 01:15:43;;;;;;;25.67;18.97;;;;;;;2.44;83.86;97605.59;6268549;28;20293;-67
2021/10/31 01:19:24;;;;;;;28.37;19.13;;;;;;;2.43;83.81;97606.53;6271850;28;20206;-67
2021/10/31 01:22:42;;;;;;;27.27;19.73;;;;;;;2.43;84.05;97610.88;6271295;28;20696;-68
2021/10/31 01:26:03;;;;;;;29.70;20.40;;;;;;;2.44;84.16;97612.56;6271930;28;20651;-67
2021/10/31 01:29:34;;;;;;;29.67;20.80;;;;;;;2.45;83.89;97615.09;6271341;28;20200;-67
2021/10/31 01:32:55;;;;;;;30.23;21.43;;;;;;;2.49;84.33;97618.41;6270274;28;20260;-67
2021/10/31 01:36:12;;;;;;;31.33;22.23;;;;;;;2.52;84.31;97610.44;6270135;28;20291;-67
2021/10/31 01:39:27;;;;;;;29.43;20.43;;;;;;;2.52;84.45;97613.03;6269547;28;20224;-67
2021/10/31 01:42:55;;;;;;;25.50;18.63;;;;;;;2.52;84.06;97613.03;6254291;28;20655;-67
2021/10/31 01:46:07;;;;;;;34.93;22.93;;;;;;;2.49;84.03;97608.00;6269513;28;20732;-67
2021/10/31 01:49:37;;;;;;;38.03;26.00;;;;;;;2.44;84.37;97605.59;6271216;28;20221;-67
2021/10/31 01:53:04;;;;;;;35.00;23.90;;;;;;;2.44;84.46;97609.97;6269473;28;20231;-67
2021/10/31 01:56:15;;;;;;;34.83;24.50;;;;;;;2.41;84.71;97613.56;6271199;28;20857;-67
2021/10/31 01:59:29;;;;;;;31.50;23.93;;;;;;;2.43;84.81;97613.50;6269437;28;20193;-67
2021/10/31 02:02:37;;;;;;;35.10;25.50;;;;;;;2.42;84.88;97611.81;6270778;28;20681;-67
2021/10/31 02:05:40;;;;;;;34.87;25.67;;;;;;;2.42;84.60;97615.25;6270941;28;20189;-67
2021/10/31 02:08:46;;;;;;;34.80;25.97;;;;;;;2.43;84.68;97618.69;6269371;28;20200;-67
2021/10/31 02:11:49;;;;;;;42.20;27.90;;;;;;;2.40;84.79;97609.25;6269139;28;20301;-70
2021/10/31 02:14:52;;;;;;;34.73;25.60;;;;;;;2.41;84.96;97610.97;6270032;28;20683;-67
2021/10/31 02:17:56;;;;;;;37.73;27.13;;;;;;;2.41;85.02;97608.34;6269034;28;20202;-67
2021/10/31 02:21:00;;;;;;;47.87;32.00;;;;;;;2.41;84.97;97612.72;6270215;28;20196;-67
2021/10/31 02:24:07;;;;;;;40.30;28.87;;;;;;;2.38;85.39;97602.47;6270468;28;20200;-68
2021/10/31 02:27:20;;;;;;;44.20;30.33;;;;;;;2.35;85.04;97603.44;6270808;28;20198;-67
2021/10/31 02:30:22;;;;;;;45.23;32.47;;;;;;;2.35;85.21;97610.41;6269624;28;20567;-67
2021/10/31 02:33:24;;;;;;;50.80;34.00;;;;;;;2.32;85.24;97603.59;6270243;28;20207;-68
2021/10/31 02:36:26;;;;;;;50.50;34.07;;;;;;;2.28;85.36;97603.84;6269873;28;20677;-67
2021/10/31 02:39:28;;;;;;;49.87;34.00;;;;;;;2.27;85.15;97607.34;6270018;28;20197;-67
2021/10/31 02:42:31;;;;;;;48.00;35.80;;;;;;;2.27;85.43;97608.19;6268288;28;20661;-67
2021/10/31 02:45:33;;;;;;;53.27;37.70;;;;;;;2.26;85.43;97603.06;6269410;28;20664;-67
2021/10/31 02:48:37;;;;;;;52.87;36.43;;;;;;;2.25;85.50;97603.97;6269624;28;20199;-67
2021/10/31 02:52:02;;;;;;;56.97;40.60;;;;;;;2.25;85.80;97604.81;6268008;28;20618;-67
2021/10/31 02:55:43;;;;;;;58.60;38.73;;;;;;;2.25;85.78;97609.19;6267688;28;20668;-67
2021/10/31 02:58:54;;;;;;;56.03;40.07;;;;;;;2.23;85.87;97602.28;6257523;28;20692;-67
2021/10/31 03:01:58;;;;;;;55.33;39.47;;;;;;;2.20;85.83;97602.41;6241569;28;20236;-67
2021/10/31 03:05:01;;;;;;;53.43;37.33;;;;;;;2.18;86.00;97599.06;6241541;28;20211;-68
2021/10/31 03:08:03;;;;;;;54.27;37.47;;;;;;;2.16;85.90;97595.69;6224508;28;20424;-68
2021/10/31 03:11:08;;;;;;;60.93;40.10;;;;;;;2.15;86.15;97595.75;6241282;28;20233;-67
2021/10/31 03:14:10;;;;;;;59.70;40.83;;;;;;;2.14;86.14;97602.72;6257569;28;20634;-68
2021/10/31 03:17:13;;;;;;;60.07;40.30;;;;;;;2.15;85.95;97603.56;6257694;28;20208;-68
2021/10/31 03:20:15;;;;;;;62.37;42.10;;;;;;;2.13;86.10;97600.19;6240959;28;20195;-67
2021/10/31 03:23:17;;;;;;;67.93;44.97;;;;;;;2.12;86.52;97604.56;6240887;28;20335;-68
2021/10/31 03:26:19;;;;;;;62.90;40.97;;;;;;;2.11;86.35;97613.28;6241215;28;20750;-68
2021/10/31 03:29:24;;;;;;;61.20;41.50;;;;;;;2.07;86.17;97616.13;6224289;28;20208;-67
2021/10/31 03:32:26;;;;;;;62.20;41.23;;;;;;;2.06;86.63;97619.63;6234974;28;20216;-67
2021/10/31 03:35:28;;;;;;;56.90;40.33;;;;;;;2.04;86.51;97618.84;6254796;28;20200;-68
2021/10/31 03:38:31;;;;;;;59.77;39.63;;;;;;;2.03;86.59;97618.00;6268606;28;20222;-68
2021/10/31 03:41:33;;;;;;;54.23;36.53;;;;;;;2.00;86.32;97619.91;6267924;28;20192;-67
2021/10/31 03:44:47;;;;;;;56.27;39.20;;;;;;;1.98;86.35;97619.16;6267915;28;20203;-67
2021/10/31 03:47:49;;;;;;;53.03;37.47;;;;;;;1.96;86.37;97624.44;6268613;28;20198;-67
2021/10/31 03:50:51;;;;;;;61.73;40.40;;;;;;;1.94;86.49;97628.00;6267904;28;20579;-67
2021/10/31 03:53:53;;;;;;;53.90;37.90;;;;;;;1.88;86.57;97631.75;6268225;28;20620;-67
2021/10/31 03:56:55;;;;;;;50.90;35.20;;;;;;;1.84;86.18;97638.00;6268345;28;20198;-67
2021/10/31 03:59:57;;;;;;;55.83;38.10;;;;;;;1.79;86.13;97634.78;6268322;28;20191;-67
2021/10/31 04:03:00;;;;;;;49.63;34.50;;;;;;;1.75;86.30;97636.66;6266846;28;20187;-68
2021/10/31 04:06:02;;;;;;;56.67;37.10;;;;;;;1.74;86.21;97636.72;6267582;28;20651;-68
2021/10/31 04:09:04;;;;;;;54.63;36.47;;;;;;;1.71;86.46;97648.13;6268364;28;20195;-67
2021/10/31 04:12:06;;;;;;;56.83;38.17;;;;;;;1.68;86.07;97644.81;6267173;28;20342;-68
2021/10/31 04:15:08;;;;;;;57.23;36.87;;;;;;;1.66;86.35;97646.66;6268272;28;20678;-67
2021/10/31 04:18:11;;;;;;;52.10;36.77;;;;;;;1.66;86.29;97642.28;6268136;28;20215;-67
2021/10/31 04:21:13;;;;;;;49.70;33.40;;;;;;;1.66;86.58;97649.25;6267482;28;20199;-68
2021/10/31 04:24:17;;;;;;;55.23;38.07;;;;;;;1.63;86.46;97645.03;6268220;28;20689;-67
2021/10/31 04:27:19;;;;;;;55.77;37.40;;;;;;;1.62;86.35;97647.69;6267344;28;20195;-68
2021/10/31 04:30:21;;;;;;;57.00;37.73;;;;;;;1.57;86.56;97645.31;6267700;28;20187;-68
2021/10/31 04:33:23;;;;;;;57.70;39.13;;;;;;;1.54;86.59;97639.41;6266821;28;20675;-67
2021/10/31 04:36:25;;;;;;;56.00;37.60;;;;;;;1.50;87.13;97646.47;6267245;28;20294;-67
2021/10/31 04:39:28;;;;;;;59.50;40.83;;;;;;;1.52;86.59;97643.81;6267925;28;20222;-67
2021/10/31 04:42:32;;;;;;;64.97;42.60;;;;;;;1.57;86.56;97653.13;6267230;28;20210;-67
2021/10/31 04:45:34;;;;;;;60.03;39.83;;;;;;;1.58;86.62;97653.97;6267773;28;20710;-68
2021/10/31 04:48:36;;;;;;;55.73;36.27;;;;;;;1.56;86.63;97646.22;6266306;28;20206;-67
2021/10/31 04:51:40;;;;;;;60.63;41.00;;;;;;;1.55;86.58;97651.47;6266323;28;20200;-67
2021/10/31 04:54:42;;;;;;;64.67;42.93;;;;;;;1.56;87.17;97655.78;6266201;28;20211;-67
2021/10/31 04:57:44;;;;;;;63.33;43.53;;;;;;;1.64;86.55;97651.06;6267068;28;20685;-67
2021/10/31 05:00:46;;;;;;;62.73;41.53;;;;;;;1.68;86.68;97648.28;6267490;28;20675;-67
2021/10/31 05:03:49;;;;;;;54.77;38.00;;;;;;;1.70;86.69;97646.41;6267131;28;20659;-67
2021/10/31 05:06:51;;;;;;;63.53;42.33;;;;;;;1.74;87.05;97639.34;6267515;28;20678;-67
2021/10/31 05:09:54;;;;;;;61.43;40.53;;;;;;;1.83;86.80;97644.13;6265948;28;20712;-68
2021/10/31 05:12:56;;;;;;;61.40;41.37;;;;;;;1.90;86.58;97642.09;6266890;28;20216;-68
2021/10/31 05:15:58;;;;;;;58.13;41.90;;;;;;;1.96;86.82;97647.00;6266188;28;20195;-67
2021/10/31 05:19:01;;;;;;;54.57;38.00;;;;;;;2.01;86.45;97653.66;6269741;28;20614;-68
2021/10/31 05:22:03;;;;;;;67.43;42.60;;;;;;;2.07;86.65;97652.56;6270455;28;20263;-67
2021/10/31 05:25:06;;;;;;;61.63;42.80;;;;;;;2.12;86.50;97651.41;6271882;28;20649;-68
2021/10/31 05:28:09;;;;;;;60.87;41.37;;;;;;;2.18;86.20;97656.34;6271204;28;20203;-67
2021/10/31 05:31:11;;;;;;;73.37;46.57;;;;;;;2.29;86.52;97660.19;6271486;28;20300;-67
2021/10/31 05:34:13;;;;;;;69.53;46.20;;;;;;;2.36;86.47;97653.78;6271131;28;20218;-67
2021/10/31 05:37:16;;;;;;;71.87;48.70;;;;;;;2.45;86.23;97648.97;6269856;28;20227;-68
2021/10/31 05:40:18;;;;;;;64.17;44.30;;;;;;;2.56;86.14;97651.06;6271465;28;20195;-68
2021/10/31 05:43:20;;;;;;;78.73;51.17;;;;;;;2.64;86.05;97654.13;6270779;28;20674;-67
2021/10/31 05:46:22;;;;;;;74.87;48.37;;;;;;;2.76;86.20;97648.31;6271334;28;20666;-67
2021/10/31 05:49:24;;;;;;;79.13;51.70;;;;;;;2.91;86.31;97652.75;6270996;28;20266;-67
2021/10/31 05:52:26;;;;;;;82.63;52.73;;;;;;;3.07;86.35;97659.81;6269463;28;20290;-67
2021/10/31 05:55:29;;;;;;;88.10;56.80;;;;;;;3.16;86.34;97654.13;6270557;28;20811;-68
2021/10/31 05:58:31;;;;;;;94.77;59.83;;;;;;;3.29;86.48;97661.22;6270761;28;20265;-67
2021/10/31 06:01:34;;;;;;;87.03;56.70;;;;;;;3.44;86.24;97663.97;6270952;28;20237;-72
2021/10/31 06:04:39;;;;;;;89.37;59.67;;;;;;;3.56;86.40;97663.34;6269966;28;20187;-68
2021/10/31 06:07:42;;;;;;;104.30;66.27;;;;;;;3.72;86.71;97672.88;6270796;28;20551;-67
2021/10/31 06:10:47;;;;;;;103.20;64.33;;;;;;;3.87;86.96;97670.38;6269813;28;20235;-67
2021/10/31 06:14:08;;;;;;;110.80;68.27;;;;;;;4.00;86.55;97671.38;6268977;28;20214;-68
2021/10/31 06:17:10;;;;;;;103.40;67.77;;;;;;;4.11;86.97;97678.63;6270102;28;20199;-67
2021/10/31 06:20:15;;;;;;;118.70;75.63;;;;;;;4.17;87.06;97681.78;6269897;28;20324;-68
2021/10/31 06:23:18;;;;;;;105.57;68.33;;;;;;;4.22;87.23;97679.75;6269758;28;20237;-68
2021/10/31 06:26:20;;;;;;;102.80;66.13;;;;;;;4.28;87.26;97675.97;6269501;28;20197;-68
2021/10/31 06:29:22;;;;;;;103.23;66.43;;;;;;;4.32;86.54;97680.09;6269973;28;20190;-68
2021/10/31 06:32:24;;;;;;;101.70;64.53;;;;;;;4.36;87.52;97685.06;6269480;28;20199;-67
2021/10/31 06:35:26;;;;;;;105.27;67.07;;;;;;;4.43;86.58;97685.56;6269431;28;20637;-67
2021/10/31 06:38:29;;;;;;;92.27;62.40;;;;;;;4.50;86.72;97684.28;6269564;28;20213;-67
2021/10/31 06:41:31;;;;;;;93.77;64.03;;;;;;;4.56;86.79;97680.50;6269206;28;20572;-67
2021/10/31 06:44:33;;;;;;;91.53;61.73;;;;;;;4.65;87.23;97680.81;6269521;28;20547;-67
2021/10/31 06:47:35;;;;;;;89.40;61.73;;;;;;;4.76;86.38;97691.50;6269267;28;20193;-67
2021/10/31 06:50:37;;;;;;;89.27;59.90;;;;;;;4.89;87.08;97685.59;6269007;28;20205;-67
2021/10/31 06:53:40;;;;;;;83.50;58.77;;;;;;;4.98;86.81;97687.69;6269170;28;20207;-67
2021/10/31 06:56:42;;;;;;;88.63;60.63;;;;;;;5.07;86.21;97693.22;6269344;28;20191;-67
2021/10/31 06:59:44;;;;;;;85.20;58.83;;;;;;;5.16;85.92;97695.28;6259817;28;20707;-67
2021/10/31 07:02:46;;;;;;;84.63;59.80;;;;;;;5.15;85.78;97690.16;6242637;28;20204;-68
2021/10/31 07:05:48;;;;;;;84.03;58.10;;;;;;;5.19;85.51;97691.66;6259117;28;20563;-67
2021/10/31 07:08:51;;;;;;;75.07;54.33;;;;;;;5.27;85.16;97697.28;6269085;28;20681;-67
2021/10/31 07:11:53;;;;;;;86.40;60.03;;;;;;;5.34;85.37;97697.75;6267240;28;20336;-68
2021/10/31 07:14:55;;;;;;;88.43;60.47;;;;;;;5.38;84.92;97692.25;6267560;28;20230;-68
2021/10/31 07:17:59;;;;;;;81.17;59.00;;;;;;;5.42;84.78;97696.38;6268162;28;20279;-67
2021/10/31 07:21:05;;;;;;;92.50;62.57;;;;;;;5.56;84.20;97699.00;6268556;28;20625;-68
2021/10/31 07:24:07;;;;;;;86.27;60.40;;;;;;;5.78;84.00;97693.31;6268753;28;20195;-67
2021/10/31 07:27:09;;;;;;;90.53;63.00;;;;;;;5.89;83.35;97693.53;6266900;28;20206;-68
2021/10/31 07:30:12;;;;;;;89.23;60.17;;;;;;;6.02;82.16;97698.84;6267199;28;20195;-68
2021/10/31 07:33:14;;;;;;;79.33;57.20;;;;;;;6.16;82.03;97698.84;6267923;28;20211;-67
2021/10/31 07:36:16;;;;;;;78.03;56.37;;;;;;;6.30;82.08;97698.81;6266952;28;20206;-67
2021/10/31 07:39:18;;;;;;;83.13;60.63;;;;;;;6.41;81.63;97697.31;6268673;28;20202;-68
2021/10/31 07:42:28;;;;;;;79.53;57.67;;;;;;;6.35;80.51;97700.31;6267788;28;20206;-68
2021/10/31 07:45:30;;;;;;;82.37;56.87;;;;;;;6.23;80.51;97701.94;6268289;28;20227;-68
2021/10/31 07:48:32;;;;;;;82.30;59.03;;;;;;;6.20;81.50;97699.47;6267691;28;20198;-68
2021/10/31 07:51:34;;;;;;;78.60;55.03;;;;;;;6.36;80.87;97696.75;6268138;28;20203;-68
2021/10/31 07:54:36;;;;;;;70.53;53.97;;;;;;;6.45;80.93;97697.03;6267405;28;20215;-67
2021/10/31 07:57:46;;;;;;;68.77;50.50;;;;;;;6.57;80.19;97701.50;6267904;28;20192;-67
2021/10/31 08:00:49;;;;;;;70.67;51.83;;;;;;;6.78;79.62;97698.44;6267559;28;20336;-68
2021/10/31 08:03:53;;;;;;;73.23;53.97;;;;;;;6.88;78.53;97699.53;6267326;28;20187;-68
2021/10/31 08:06:55;;;;;;;69.47;53.23;;;;;;;7.11;78.10;97696.19;6267843;28;20289;-70
2021/10/31 08:09:59;;;;;;;68.33;51.83;;;;;;;7.22;77.43;97698.13;6267192;28;20708;-70
2021/10/31 08:13:02;;;;;;;70.03;51.43;;;;;;;7.26;77.00;97697.81;6267613;28;20657;-66
2021/10/31 08:16:04;;;;;;;67.83;51.03;;;;;;;7.34;76.21;97695.53;6267393;28;20191;-67
2021/10/31 08:19:07;;;;;;;67.10;49.30;;;;;;;7.29;76.54;97694.97;6267684;28;20201;-69
2021/10/31 08:22:10;;;;;;;64.70;48.83;;;;;;;7.34;77.02;97692.91;6266630;28;20980;-66
2021/10/31 08:25:12;;;;;;;63.90;48.63;;;;;;;7.35;76.17;97689.34;6267178;28;20184;-69
2021/10/31 08:28:16;;;;;;;69.70;50.83;;;;;;;7.34;76.29;97685.03;6266278;28;20232;-67
2021/10/31 08:31:27;;;;;;;67.13;48.90;;;;;;;7.27;76.18;97691.63;6267433;28;20511;-66
2021/10/31 08:34:30;;;;;;;72.47;52.20;;;;;;;7.32;75.78;97684.28;6246751;28;20292;-69
2021/10/31 08:37:32;;;;;;;61.73;48.33;;;;;;;7.37;75.56;97679.56;6267509;28;20227;-69
2021/10/31 08:40:34;;;;;;;61.10;46.27;;;;;;;7.53;75.04;97679.38;6265741;28;20203;-69
2021/10/31 08:43:39;;;;;;;62.53;47.57;;;;;;;7.50;75.42;97671.69;6267857;28;20189;-69
2021/10/31 08:46:42;;;;;;;64.60;48.70;;;;;;;7.47;74.61;97677.16;6267026;28;20199;-67
2021/10/31 08:49:44;;;;;;;63.33;48.63;;;;;;;7.53;75.75;97673.28;6267396;28;20302;-69
2021/10/31 08:52:46;;;;;;;61.87;46.87;;;;;;;7.61;75.49;97669.19;6268073;28;20186;-67
2021/10/31 08:55:49;;;;;;;62.77;46.00;;;;;;;7.61;74.83;97663.91;6271524;28;20211;-69
2021/10/31 08:58:51;;;;;;;58.83;45.07;;;;;;;7.70;74.57;97660.66;6271013;28;20210;-66
2021/10/31 09:01:53;;;;;;;56.60;44.10;;;;;;;7.79;74.15;97657.38;6246816;28;20723;-67
2021/10/31 09:04:56;;;;;;;58.90;46.60;;;;;;;7.60;74.67;97664.03;6268990;28;20684;-69
2021/10/31 09:07:58;;;;;;;54.77;41.73;;;;;;;7.49;74.78;97656.88;6271428;28;20195;-67
2021/10/31 09:11:00;;;;;;;60.00;44.43;;;;;;;7.59;74.75;97660.56;6270115;28;20231;-66
2021/10/31 09:14:03;;;;;;;62.97;48.23;;;;;;;7.55;74.85;97660.88;6271788;28;20212;-67
2021/10/31 09:17:05;;;;;;;58.23;44.27;;;;;;;7.53;75.03;97653.09;6271162;28;20198;-70
2021/10/31 09:20:08;;;;;;;55.93;44.13;;;;;;;7.89;74.91;97654.97;6271608;28;20667;-67
2021/10/31 09:23:11;;;;;;;55.13;44.77;;;;;;;8.24;72.77;97647.22;6270780;28;20193;-67
2021/10/31 09:26:13;;;;;;;57.73;44.77;;;;;;;8.36;72.05;97651.66;6271562;28;20217;-67
2021/10/31 09:29:16;;;;;;;61.23;46.43;;;;;;;8.64;70.99;97641.75;6271511;28;20205;-67
2021/10/31 09:32:23;;;;;;;52.93;41.37;;;;;;;8.84;71.34;97639.34;6270579;28;20668;-66
2021/10/31 09:35:42;;;;;;;55.20;42.10;;;;;;;9.00;70.00;97636.41;6271054;28;20209;-67
2021/10/31 09:38:44;;;;;;;53.77;42.30;;;;;;;9.07;69.72;97635.00;6270727;28;20682;-67
2021/10/31 09:41:47;;;;;;;59.33;45.30;;;;;;;9.13;69.03;97628.44;6269879;28;20643;-67
2021/10/31 09:44:49;;;;;;;58.43;44.73;;;;;;;8.91;70.42;97631.81;6270664;28;20195;-67
2021/10/31 09:47:55;;;;;;;58.73;45.87;;;;;;;9.22;69.77;97623.31;6269278;28;20193;-63
2021/10/31 09:50:58;;;;;;;50.70;41.30;;;;;;;9.41;69.34;97620.09;6270800;28;20175;-67
2021/10/31 09:54:02;;;;;;;51.67;41.30;;;;;;;9.27;69.55;97611.59;6270735;28;20623;-69
2021/10/31 09:57:04;;;;;;;52.77;41.30;;;;;;;9.85;69.08;97618.47;6270839;28;20690;-67
2021/10/31 10:00:07;;;;;;;50.73;38.67;;;;;;;10.35;66.60;97612.69;6270074;28;20199;-67
2021/10/31 10:03:24;;;;;;;53.47;41.67;;;;;;;10.30;65.65;97606.09;6270165;28;20198;-67
2021/10/31 10:06:28;;;;;;;56.97;43.00;;;;;;;10.13;65.76;97610.06;6270337;28;20195;-67
2021/10/31 10:09:31;;;;;;;50.17;40.60;;;;;;;10.21;66.70;97609.47;6269921;28;20218;-66
2021/10/31 10:12:33;;;;;;;52.73;41.07;;;;;;;10.41;65.54;97606.06;6270176;28;20198;-67
2021/10/31 10:15:35;;;;;;;52.00;39.97;;;;;;;10.46;65.33;97598.63;6269729;28;20244;-67
2021/10/31 10:18:38;;;;;;;50.47;40.57;;;;;;;10.55;65.46;97597.88;6268619;28;20278;-67
2021/10/31 10:21:40;;;;;;;53.00;41.00;;;;;;;10.86;65.08;97585.66;6270141;28;20639;-69
2021/10/31 10:25:00;;;;;;;43.67;37.80;;;;;;;11.10;64.23;97590.66;6269555;28;20202;-66
2021/10/31 10:28:02;;;;;;;47.57;38.10;;;;;;;11.29;63.50;97584.66;6269942;28;20277;-67
2021/10/31 10:31:25;;;;;;;48.07;40.13;;;;;;;11.44;62.67;97573.66;6267722;28;20192;-67
2021/10/31 10:34:38;;;;;;;44.37;36.80;;;;;;;11.37;63.20;97571.69;6263896;28;20578;-67
2021/10/31 10:37:41;;;;;;;43.40;35.83;;;;;;;11.64;62.91;97557.88;6259896;28;20691;-67
2021/10/31 10:40:43;;;;;;;44.00;37.23;;;;;;;11.79;62.11;97564.50;6258609;28;20196;-67
2021/10/31 10:43:45;;;;;;;49.30;39.07;;;;;;;11.62;62.01;97558.00;6269581;28;20322;-69
2021/10/31 10:46:50;;;;;;;46.47;37.77;;;;;;;11.60;62.44;97546.72;6269103;28;20200;-67
2021/10/31 10:49:54;;;;;;;41.03;34.20;;;;;;;11.99;62.08;97537.16;6269945;28;20184;-66
2021/10/31 10:52:57;;;;;;;42.60;36.37;;;;;;;12.28;60.52;97534.56;6268751;28;20202;-64
2021/10/31 10:56:09;;;;;;;45.90;34.53;;;;;;;12.31;60.60;97529.00;6268018;28;20220;-69
2021/10/31 10:59:23;;;;;;;39.87;33.87;;;;;;;12.50;60.83;97523.72;6268797;28;20196;-64
2021/10/31 11:02:27;;;;;;;37.53;31.73;;;;;;;12.87;59.18;97521.22;6269203;28;20203;-65
2021/10/31 11:05:32;;;;;;;40.30;33.50;;;;;;;13.03;58.66;97514.50;6267777;28;20191;-66
2021/10/31 11:08:34;;;;;;;38.03;31.90;;;;;;;12.91;58.54;97501.41;6268561;28;20205;-67
2021/10/31 11:11:36;;;;;;;34.87;29.83;;;;;;;12.78;58.72;97494.72;6268895;28;20598;-66
2021/10/31 11:14:39;;;;;;;36.87;30.53;;;;;;;12.56;58.76;97498.53;6269004;28;20210;-67
2021/10/31 11:17:44;;;;;;;29.57;25.87;;;;;;;12.76;59.27;97484.28;6267063;28;20191;-67
2021/10/31 11:20:47;;;;;;;34.53;28.37;;;;;;;13.11;57.83;97473.06;6267435;28;20224;-67
2021/10/31 11:23:50;;;;;;;31.70;26.63;;;;;;;13.48;58.06;97474.88;6266822;28;20202;-66
2021/10/31 11:26:54;;;;;;;31.07;26.63;;;;;;;13.83;56.52;97463.56;6267264;28;20229;-67
2021/10/31 11:29:58;;;;;;;28.97;25.87;;;;;;;13.85;57.00;97465.09;6267115;28;20214;-67
2021/10/31 11:33:02;;;;;;;33.40;28.17;;;;;;;13.36;57.56;97465.47;6268160;28;20252;-67
2021/10/31 11:36:04;;;;;;;31.80;27.50;;;;;;;13.71;56.83;97457.63;6268218;28;20214;-67
2021/10/31 11:39:07;;;;;;;29.17;24.83;;;;;;;13.86;55.81;97461.47;6266968;28;20241;-66
2021/10/31 11:42:10;;;;;;;30.33;25.73;;;;;;;13.89;56.22;97452.34;6266732;28;20203;-66
2021/10/31 11:45:18;;;;;;;29.37;25.10;;;;;;;14.13;55.30;97446.47;6267876;28;20601;-67
2021/10/31 11:48:24;;;;;;;28.20;24.13;;;;;;;14.03;55.98;97430.63;6268349;28;20347;-67
2021/10/31 11:51:42;;;;;;;26.43;22.87;;;;;;;14.54;53.92;97421.16;6267794;28;20182;-66
2021/10/31 11:55:25;;;;;;;28.10;23.93;;;;;;;14.63;53.77;97414.91;6268241;28;20218;-66
2021/10/31 11:58:34;;;;;;;24.83;21.67;;;;;;;14.97;52.78;97414.97;6244356;28;20718;-66
2021/10/31 12:01:59;;;;;;;24.13;21.33;;;;;;;15.15;52.17;97399.78;6268178;28;20179;-66
2021/10/31 12:05:15;;;;;;;24.60;21.00;;;;;;;15.27;52.04;97395.84;6266605;28;20200;-67
2021/10/31 12:08:43;;;;;;;22.57;19.67;;;;;;;15.33;52.01;97395.22;6242716;28;20204;-67
2021/10/31 12:11:47;;;;;;;25.20;21.67;;;;;;;15.39;52.10;97393.75;6242934;28;20224;-66
2021/10/31 12:14:52;;;;;;;25.17;20.30;;;;;;;15.49;51.52;97386.47;6266563;28;20212;-66
2021/10/31 12:18:03;;;;;;;25.07;20.63;;;;;;;15.76;50.96;97390.75;6267726;28;20576;-66
2021/10/31 12:21:20;;;;;;;22.57;19.80;;;;;;;15.97;49.54;97383.13;6267755;28;20204;-66
2021/10/31 12:24:35;;;;;;;22.47;20.07;;;;;;;15.65;50.71;97370.59;6267852;28;20199;-67
2021/10/31 12:27:46;;;;;;;22.53;19.70;;;;;;;15.48;50.58;97369.66;6270073;28;20221;-68
2021/10/31 12:30:49;;;;;;;20.90;18.60;;;;;;;15.79;50.58;97359.31;6271437;28;20199;-66
2021/10/31 12:34:16;;;;;;;20.87;18.60;;;;;;;15.97;50.00;97353.84;6263083;28;20196;-66
2021/10/31 12:37:18;;;;;;;19.53;16.77;;;;;;;16.01;49.79;97349.03;6258914;28;20554;-68
2021/10/31 12:40:21;;;;;;;20.80;18.23;;;;;;;16.08;49.21;97336.72;6272441;28;20191;-66
2021/10/31 12:43:45;;;;;;;20.23;18.13;;;;;;;16.23;49.31;97341.22;6272330;28;20191;-66
2021/10/31 12:47:03;;;;;;;20.33;18.20;;;;;;;15.94;49.92;97326.75;6272432;28;20184;-66
2021/10/31 12:50:26;;;;;;;18.93;16.77;;;;;;;16.41;49.31;97326.91;6271938;28;20306;-66
2021/10/31 12:53:39;;;;;;;20.83;17.70;;;;;;;16.93;47.77;97324.66;6272298;28;20184;-65
2021/10/31 12:56:41;;;;;;;17.80;16.03;;;;;;;17.53;46.45;97326.72;6272070;28;20210;-66
2021/10/31 12:59:49;;;;;;;19.97;17.87;;;;;;;17.89;44.91;97319.03;6271911;28;20615;-66
2021/10/31 13:02:57;;;;;;;18.60;16.60;;;;;;;18.91;43.01;97309.59;6271996;28;20188;-66
2021/10/31 13:06:00;;;;;;;19.80;17.47;;;;;;;19.62;40.79;97314.25;6271636;28;20566;-65
2021/10/31 13:09:04;;;;;;;18.30;16.23;;;;;;;20.61;39.18;97305.31;6271885;28;20270;-66
2021/10/31 13:12:22;;;;;;;19.90;16.83;;;;;;;20.46;38.93;97307.25;6271066;28;20226;-67
2021/10/31 13:15:25;;;;;;;16.93;15.13;;;;;;;20.87;38.60;97301.13;6271698;28;20203;-66
2021/10/31 13:18:30;;;;;;;17.67;15.77;;;;;;;20.31;39.45;97301.13;6271520;28;20194;-67
2021/10/31 13:21:33;;;;;;;21.33;18.20;;;;;;;19.69;40.55;97308.97;6271127;28;20191;-66
2021/10/31 13:24:46;;;;;;;18.97;16.40;;;;;;;19.23;41.58;97303.03;6270163;28;20188;-66
2021/10/31 13:27:48;;;;;;;18.47;16.57;;;;;;;17.87;44.07;97305.84;6269803;28;20183;-66
2021/10/31 13:31:09;;;;;;;18.60;16.63;;;;;;;16.50;47.29;97296.59;6271803;28;20197;-67
2021/10/31 13:34:12;;;;;;;21.13;18.07;;;;;;;14.95;51.62;97306.19;6247828;28;20211;-66
2021/10/31 13:37:17;;;;;;;20.93;18.50;;;;;;;14.22;53.81;97304.88;6270771;28;20214;-66
2021/10/31 13:40:19;;;;;;;20.47;18.23;;;;;;;13.86;55.08;97304.94;6270474;28;20187;-67
2021/10/31 13:43:33;;;;;;;21.37;18.93;;;;;;;13.67;56.47;97291.84;6270553;28;20298;-66
2021/10/31 13:46:36;;;;;;;21.57;18.57;;;;;;;13.34;57.33;97306.59;6270868;28;20192;-65
2021/10/31 13:49:47;;;;;;;22.40;20.10;;;;;;;13.03;58.46;97303.38;6270472;28;20205;-66
2021/10/31 13:53:02;;;;;;;21.80;18.77;;;;;;;12.88;59.31;97305.69;6270470;28;20191;-66
2021/10/31 13:56:05;;;;;;;19.70;17.57;;;;;;;12.76;59.65;97290.97;6270663;28;20548;-65
2021/10/31 13:59:08;;;;;;;19.83;17.73;;;;;;;12.74;60.03;97289.47;6269445;28;20244;-66
2021/10/31 14:02:16;;;;;;;21.30;17.53;;;;;;;12.70;59.87;97296.00;6270257;28;20223;-65
2021/10/31 14:05:33;;;;;;;21.10;18.33;;;;;;;12.71;59.81;97287.09;6270107;28;20627;-66
2021/10/31 14:08:44;;;;;;;20.13;17.93;;;;;;;12.66;60.15;97290.19;6245665;28;20655;-66
2021/10/31 14:11:55;;;;;;;21.07;18.83;;;;;;;12.56;60.98;97289.41;6267991;28;20756;-66
2021/10/31 14:15:08;;;;;;;22.57;18.97;;;;;;;12.44;61.28;97282.59;6270145;28;20203;-66
2021/10/31 14:18:12;;;;;;;21.30;17.90;;;;;;;12.40;61.56;97284.69;6270417;28;20284;-66
2021/10/31 14:21:16;;;;;;;22.97;18.47;;;;;;;12.36;61.30;97279.84;6269633;28;20280;-65